Time;durP1;ratioP1;P1;durP2;ratioP2;P2;SDS_P1;SDS_P2;PMS_P1;PMS_P2;Temp;Humidity;BMP_temperature;BMP_pressure;BME280_temperature;BME280_humidity;BME280_pressure;Samples;Min_cycle;Max_cycle;Signal;HPM_P1;HPM_P2
2024/03/28 00:00:18;;;;;;;;;;;17.80;59.50;;;;;;5002380;28;942;-73
2024/03/28 00:02:43;;;;;;;;;;;17.80;59.50;;;;;;4997718;28;1384;-72
2024/03/28 00:05:09;;;;;;;;;;;17.80;59.50;;;;;;5019157;28;1252;-72
2024/03/28 00:07:34;;;;;;;;;;;17.80;59.50;;;;;;5002376;28;979;-73
2024/03/28 00:10:00;;;;;;;;;;;17.80;59.50;;;;;;5032799;28;1006;-73
2024/03/28 00:12:25;;;;;;;;;;;17.80;59.60;;;;;;5001302;28;1972;-73
2024/03/28 00:14:51;;;;;;;;;;;17.80;59.60;;;;;;4997649;28;1358;-73
2024/03/28 00:17:17;;;;;;;;;;;17.80;59.60;;;;;;5001495;28;1341;-73
2024/03/28 00:19:42;;;;;;;;;;;17.80;59.60;;;;;;5000425;28;1597;-73
2024/03/28 00:22:08;;;;;;;;;;;17.80;59.60;;;;;;5000085;28;1391;-73
2024/03/28 00:24:33;;;;;;;;;;;17.80;59.60;;;;;;5001703;28;1515;-73
2024/03/28 00:26:59;;;;;;;;;;;17.80;59.60;;;;;;4998367;28;1267;-74
2024/03/28 00:29:24;;;;;;;;;;;17.80;59.70;;;;;;5031996;28;1389;-73
2024/03/28 00:31:50;;;;;;;;;;;17.80;59.70;;;;;;5034765;28;1905;-73
2024/03/28 00:34:15;;;;;;;;;;;17.80;59.70;;;;;;4999029;28;1358;-73
2024/03/28 00:36:41;;;;;;;;;;;17.80;59.70;;;;;;5013213;28;1476;-73
2024/03/28 00:39:06;;;;;;;;;;;17.80;59.70;;;;;;5001447;28;1170;-73
2024/03/28 00:41:32;;;;;;;;;;;17.80;59.70;;;;;;5002870;28;1211;-73
2024/03/28 00:43:57;;;;;;;;;;;17.80;59.70;;;;;;5000943;28;1439;-73
2024/03/28 00:46:23;;;;;;;;;;;17.80;59.70;;;;;;5034349;28;1397;-73
2024/03/28 00:48:48;;;;;;;;;;;17.80;59.80;;;;;;5032818;28;1506;-72
2024/03/28 00:51:15;;;;;;;;;;;17.80;59.80;;;;;;5000065;28;1886;-74
2024/03/28 00:53:41;;;;;;;;;;;17.80;59.80;;;;;;5002447;28;1515;-73
2024/03/28 00:56:06;;;;;;;;;;;17.80;59.80;;;;;;4997828;28;1485;-72
2024/03/28 00:58:31;;;;;;;;;;;17.80;59.80;;;;;;5003369;28;1462;-74
2024/03/28 01:00:57;;;;;;;;;;;17.80;59.80;;;;;;5000329;28;1379;-74
2024/03/28 01:03:22;;;;;;;;;;;17.70;59.80;;;;;;5033522;28;1547;-72
2024/03/28 01:05:56;;;;;;;;;;;17.70;59.80;;;;;;5034646;28;1519;-73
2024/03/28 01:08:21;;;;;;;;;;;17.70;59.80;;;;;;5015063;28;1227;-73
2024/03/28 01:10:47;;;;;;;;;;;17.70;59.80;;;;;;5033607;28;1905;-72
2024/03/28 01:13:12;;;;;;;;;;;17.70;59.90;;;;;;5031292;28;1657;-74
2024/03/28 01:15:38;;;;;;;;;;;17.70;59.80;;;;;;4998415;28;1594;-73
2024/03/28 01:18:03;;;;;;;;;;;17.70;59.90;;;;;;5018520;28;1491;-73
2024/03/28 01:20:29;;;;;;;;;;;17.70;59.90;;;;;;5033314;28;1804;-72
2024/03/28 01:22:54;;;;;;;;;;;17.70;59.90;;;;;;4996839;28;1297;-74
2024/03/28 01:25:20;;;;;;;;;;;17.70;59.90;;;;;;4997734;28;1293;-73
2024/03/28 01:27:45;;;;;;;;;;;17.70;60.00;;;;;;5000635;28;1666;-73
2024/03/28 01:30:11;;;;;;;;;;;17.70;59.90;;;;;;5001870;28;1485;-74
2024/03/28 01:32:36;;;;;;;;;;;17.70;60.00;;;;;;5000696;28;1902;-73
2024/03/28 01:35:02;;;;;;;;;;;17.70;60.70;;;;;;4999740;28;1332;-73
2024/03/28 01:37:27;;;;;;;;;;;17.70;60.00;;;;;;5002065;28;1488;-72
2024/03/28 01:39:53;;;;;;;;;;;17.70;60.00;;;;;;5001983;28;1502;-73
2024/03/28 01:42:18;;;;;;;;;;;17.70;60.00;;;;;;4999727;28;1567;-73
2024/03/28 01:44:44;;;;;;;;;;;17.70;60.00;;;;;;5032606;28;1607;-73
2024/03/28 01:47:09;;;;;;;;;;;17.70;60.00;;;;;;5029986;28;1746;-73
2024/03/28 01:49:35;;;;;;;;;;;17.70;60.00;;;;;;5032141;28;1233;-73
2024/03/28 01:52:01;;;;;;;;;;;17.70;60.00;;;;;;5019984;28;1898;-74
2024/03/28 01:54:26;;;;;;;;;;;17.70;60.10;;;;;;5032901;28;1541;-73
2024/03/28 01:56:52;;;;;;;;;;;17.70;60.00;;;;;;5001248;28;1602;-73
2024/03/28 01:59:17;;;;;;;;;;;17.70;60.10;;;;;;5020850;28;1551;-74
2024/03/28 02:01:44;;;;;;;;;;;17.70;60.10;;;;;;5035766;28;1634;-73
2024/03/28 02:04:09;;;;;;;;;;;17.70;60.10;;;;;;5034866;28;1497;-73
2024/03/28 02:06:35;;;;;;;;;;;17.70;60.10;;;;;;5004847;28;1394;-74
2024/03/28 02:09:05;;;;;;;;;;;17.70;60.20;;;;;;5008325;28;1459;-73
2024/03/28 02:11:30;;;;;;;;;;;17.70;60.10;;;;;;5007995;28;1898;-73
2024/03/28 02:13:56;;;;;;;;;;;17.70;60.20;;;;;;5037689;28;1479;-74
2024/03/28 02:16:21;;;;;;;;;;;17.70;60.20;;;;;;5021999;28;1504;-74
2024/03/28 02:18:47;;;;;;;;;;;17.70;60.20;;;;;;5004729;28;1233;-73
2024/03/28 02:21:12;;;;;;;;;;;17.70;60.20;;;;;;5003459;28;1152;-74
2024/03/28 02:23:38;;;;;;;;;;;17.70;60.20;;;;;;5035977;28;1025;-73
2024/03/28 02:26:03;;;;;;;;;;;17.70;60.20;;;;;;5020381;28;1318;-73
2024/03/28 02:28:35;;;;;;;;;;;17.70;60.30;;;;;;5032600;28;1223;-73
2024/03/28 02:31:01;;;;;;;;;;;17.70;60.30;;;;;;5034299;28;1971;-73
2024/03/28 02:33:26;;;;;;;;;;;17.70;60.30;;;;;;5002010;28;1078;-73
2024/03/28 02:35:52;;;;;;;;;;;17.70;60.30;;;;;;5035048;28;1387;-73
2024/03/28 02:38:18;;;;;;;;;;;17.70;60.30;;;;;;5001572;28;857;-73
2024/03/28 02:40:43;;;;;;;;;;;17.70;60.30;;;;;;5005369;28;1619;-74
2024/03/28 02:43:09;;;;;;;;;;;17.70;60.30;;;;;;5034872;28;1464;-73
2024/03/28 02:45:34;;;;;;;;;;;17.70;60.30;;;;;;5004301;28;1550;-74
2024/03/28 02:48:00;;;;;;;;;;;17.70;60.30;;;;;;5022016;28;1679;-73
2024/03/28 02:50:25;;;;;;;;;;;17.70;60.30;;;;;;5037562;28;1902;-74
2024/03/28 02:52:51;;;;;;;;;;;17.70;60.40;;;;;;5002328;28;1654;-74
2024/03/28 02:55:16;;;;;;;;;;;17.70;60.40;;;;;;5004422;28;1371;-74
2024/03/28 02:57:42;;;;;;;;;;;17.70;60.40;;;;;;5034956;28;1518;-74
2024/03/28 03:00:08;;;;;;;;;;;17.70;60.40;;;;;;5035281;28;1377;-74
2024/03/28 03:02:34;;;;;;;;;;;17.70;60.40;;;;;;5030866;28;1487;-74
2024/03/28 03:04:59;;;;;;;;;;;17.60;60.40;;;;;;5034717;28;1331;-74
2024/03/28 03:07:25;;;;;;;;;;;17.70;60.40;;;;;;5037204;28;1496;-74
2024/03/28 03:09:50;;;;;;;;;;;17.70;60.40;;;;;;5021928;28;1396;-74
2024/03/28 03:12:16;;;;;;;;;;;17.60;60.40;;;;;;5023135;28;1977;-74
2024/03/28 03:14:41;;;;;;;;;;;17.70;60.50;;;;;;5037333;28;1313;-72
2024/03/28 03:17:09;;;;;;;;;;;17.60;60.50;;;;;;5007026;28;1312;-75
2024/03/28 03:19:36;;;;;;;;;;;17.60;60.50;;;;;;5034232;28;1400;-74
2024/03/28 03:22:02;;;;;;;;;;;17.60;60.50;;;;;;5034187;28;1251;-75
2024/03/28 03:24:34;;;;;;;;;;;17.60;60.50;;;;;;5002597;28;1299;-74
2024/03/28 03:27:01;;;;;;;;;;;17.60;60.50;;;;;;5032973;28;840;-74
2024/03/28 03:34:55;;;;;;;;;;;17.60;60.60;;;;;;5027368;28;1399;-74
2024/03/28 03:37:21;;;;;;;;;;;17.60;60.60;;;;;;5032804;28;1348;-74
2024/03/28 03:39:47;;;;;;;;;;;17.60;60.60;;;;;;5036531;28;1359;-75
2024/03/28 03:42:14;;;;;;;;;;;17.60;60.60;;;;;;5001862;28;1329;-74
2024/03/28 03:44:39;;;;;;;;;;;17.60;60.60;;;;;;5037749;28;1379;-74
2024/03/28 03:47:05;;;;;;;;;;;17.60;60.60;;;;;;5002872;28;1359;-74
2024/03/28 03:49:31;;;;;;;;;;;17.60;60.60;;;;;;5032637;28;1265;-74
2024/03/28 03:51:56;;;;;;;;;;;17.60;60.70;;;;;;5002081;28;1910;-74
2024/03/28 03:54:22;;;;;;;;;;;17.60;60.60;;;;;;4998884;28;1233;-74
2024/03/28 03:56:47;;;;;;;;;;;17.60;60.70;;;;;;5001292;28;1301;-75
2024/03/28 03:59:13;;;;;;;;;;;17.60;60.60;;;;;;5000613;28;963;-74
2024/03/28 04:01:38;;;;;;;;;;;17.60;60.70;;;;;;5005083;28;1430;-74
2024/03/28 04:04:04;;;;;;;;;;;17.60;60.60;;;;;;5003252;28;1348;-75
2024/03/28 04:06:29;;;;;;;;;;;17.60;60.70;;;;;;5003074;28;1398;-74
2024/03/28 04:08:55;;;;;;;;;;;17.60;60.70;;;;;;5032723;28;967;-74
2024/03/28 04:11:20;;;;;;;;;;;17.60;60.70;;;;;;5033126;28;1969;-73
2024/03/28 04:13:46;;;;;;;;;;;17.60;60.70;;;;;;5008639;28;1101;-74
2024/03/28 04:16:11;;;;;;;;;;;17.60;60.70;;;;;;5031455;28;1339;-74
2024/03/28 04:18:37;;;;;;;;;;;17.60;60.70;;;;;;4999761;28;1269;-74
2024/03/28 04:21:02;;;;;;;;;;;17.60;60.70;;;;;;5000289;28;1321;-74
2024/03/28 04:23:28;;;;;;;;;;;17.60;60.70;;;;;;5032374;28;1576;-74
2024/03/28 04:25:56;;;;;;;;;;;17.60;60.70;;;;;;5032992;28;1764;-73
2024/03/28 04:28:22;;;;;;;;;;;17.60;60.80;;;;;;5031234;28;1406;-74
2024/03/28 04:30:47;;;;;;;;;;;17.60;60.80;;;;;;5029812;28;1934;-73
2024/03/28 04:33:13;;;;;;;;;;;17.60;60.80;;;;;;5001517;28;1545;-72
2024/03/28 04:35:38;;;;;;;;;;;17.60;60.80;;;;;;5014332;28;1367;-72
2024/03/28 04:38:04;;;;;;;;;;;17.60;60.80;;;;;;5000957;28;1503;-71
2024/03/28 04:40:30;;;;;;;;;;;17.60;60.80;;;;;;5032802;28;1154;-72
2024/03/28 04:42:56;;;;;;;;;;;17.60;60.90;;;;;;5018531;28;1260;-70
2024/03/28 04:45:21;;;;;;;;;;;17.60;60.80;;;;;;5000599;28;1471;-71
2024/03/28 04:47:47;;;;;;;;;;;17.60;60.80;;;;;;5032071;28;1614;-72
2024/03/28 04:50:13;;;;;;;;;;;17.60;60.80;;;;;;5030838;28;1490;-72
2024/03/28 04:52:39;;;;;;;;;;;17.60;60.90;;;;;;4999585;28;1953;-72
2024/03/28 04:55:05;;;;;;;;;;;17.60;60.90;;;;;;5030143;28;1660;-72
2024/03/28 04:57:30;;;;;;;;;;;17.60;60.90;;;;;;4997325;28;1519;-72
2024/03/28 04:59:56;;;;;;;;;;;17.60;60.90;;;;;;5002793;28;1485;-74
2024/03/28 05:02:21;;;;;;;;;;;17.60;60.90;;;;;;5034046;28;1157;-74
2024/03/28 05:04:47;;;;;;;;;;;17.60;60.90;;;;;;4999425;28;1351;-73
2024/03/28 05:07:12;;;;;;;;;;;17.60;60.90;;;;;;5032946;28;892;-74
2024/03/28 05:09:38;;;;;;;;;;;17.60;60.90;;;;;;5034749;28;1253;-73
2024/03/28 05:12:04;;;;;;;;;;;17.60;60.90;;;;;;5001836;28;1960;-72
2024/03/28 05:14:30;;;;;;;;;;;17.60;60.80;;;;;;4998456;28;1276;-73
2024/03/28 05:16:55;;;;;;;;;;;17.70;60.80;;;;;;5001622;28;1390;-72
2024/03/28 05:19:21;;;;;;;;;;;17.70;60.70;;;;;;5000193;28;1129;-72
2024/03/28 05:21:46;;;;;;;;;;;17.70;60.70;;;;;;5000655;28;1671;-71
2024/03/28 05:24:12;;;;;;;;;;;17.70;60.50;;;;;;5020025;28;1500;-72
2024/03/28 05:26:37;;;;;;;;;;;17.80;60.50;;;;;;5032461;28;1303;-73
2024/03/28 05:29:03;;;;;;;;;;;17.80;60.40;;;;;;5003536;28;1285;-70
2024/03/28 05:31:31;;;;;;;;;;;17.80;60.30;;;;;;4998839;28;1902;-71
2024/03/28 05:33:56;;;;;;;;;;;17.80;60.10;;;;;;5001256;28;1623;-71
2024/03/28 05:36:24;;;;;;;;;;;17.90;60.10;;;;;;5002491;28;1360;-71
2024/03/28 05:38:50;;;;;;;;;;;17.90;60.00;;;;;;4999952;28;1632;-74
2024/03/28 05:41:15;;;;;;;;;;;17.90;59.90;;;;;;5032459;28;1284;-73
2024/03/28 05:43:40;;;;;;;;;;;17.90;59.80;;;;;;5005843;28;1270;-74
2024/03/28 05:46:06;;;;;;;;;;;17.90;59.80;;;;;;5000901;28;4192;-74
2024/03/28 05:48:31;;;;;;;;;;;18.00;59.80;;;;;;5001317;28;1543;-73
2024/03/28 05:50:57;;;;;;;;;;;18.00;59.70;;;;;;5032878;28;1894;-73
2024/03/28 05:53:22;;;;;;;;;;;18.00;59.70;;;;;;5033681;28;1493;-73
2024/03/28 05:55:48;;;;;;;;;;;18.00;59.60;;;;;;5004098;28;1459;-73
2024/03/28 05:58:13;;;;;;;;;;;18.00;59.60;;;;;;5041293;28;959;-74
2024/03/28 06:00:39;;;;;;;;;;;18.10;59.60;;;;;;5004355;28;1314;-74
2024/03/28 06:03:04;;;;;;;;;;;18.10;59.50;;;;;;5027216;28;1343;-74
2024/03/28 06:05:30;;;;;;;;;;;18.10;59.50;;;;;;5032680;28;1486;-74
2024/03/28 06:07:55;;;;;;;;;;;18.10;59.30;;;;;;5001364;28;1234;-74
2024/03/28 06:10:21;;;;;;;;;;;18.10;59.50;;;;;;5002087;28;1938;-74
2024/03/28 06:12:46;;;;;;;;;;;18.10;59.50;;;;;;5032684;28;1918;-72
2024/03/28 06:15:12;;;;;;;;;;;18.10;59.50;;;;;;5032339;28;1269;-72
2024/03/28 06:17:37;;;;;;;;;;;18.10;59.40;;;;;;5013223;28;1331;-74
2024/03/28 06:20:05;;;;;;;;;;;18.10;59.40;;;;;;5035872;28;1552;-72
2024/03/28 06:22:30;;;;;;;;;;;18.10;59.40;;;;;;5031628;28;1581;-72
2024/03/28 06:24:56;;;;;;;;;;;18.10;59.40;;;;;;5004815;28;1313;-70
2024/03/28 06:27:21;;;;;;;;;;;18.20;59.40;;;;;;5004185;28;1402;-73
2024/03/28 06:29:50;;;;;;;;;;;18.20;59.40;;;;;;5032001;28;1407;-73
2024/03/28 06:32:24;;;;;;;;;;;18.20;59.40;;;;;;5008436;28;1907;-73
2024/03/28 06:34:53;;;;;;;;;;;18.20;59.40;;;;;;5036128;28;1504;-74
2024/03/28 06:37:19;;;;;;;;;;;18.20;59.40;;;;;;5017883;28;1317;-74
2024/03/28 06:39:45;;;;;;;;;;;18.20;59.40;;;;;;5035858;28;1318;-72
2024/03/28 06:42:10;;;;;;;;;;;18.20;59.40;;;;;;5001333;28;1075;-72
2024/03/28 06:44:36;;;;;;;;;;;18.20;59.40;;;;;;5032757;28;1638;-72
2024/03/28 06:47:01;;;;;;;;;;;18.20;59.40;;;;;;5003026;28;1260;-72
2024/03/28 06:49:27;;;;;;;;;;;18.20;59.30;;;;;;4999724;28;1371;-73
2024/03/28 06:51:52;;;;;;;;;;;18.20;59.30;;;;;;5002697;28;1883;-72
2024/03/28 06:54:20;;;;;;;;;;;18.20;59.30;;;;;;5036261;28;1442;-70
2024/03/28 06:56:46;;;;;;;;;;;18.20;59.40;;;;;;5001450;28;1338;-71
2024/03/28 06:59:13;;;;;;;;;;;18.20;59.40;;;;;;5033588;28;1462;-70
2024/03/28 07:01:39;;;;;;;;;;;18.20;59.40;;;;;;5004991;28;1543;-71
2024/03/28 07:04:04;;;;;;;;;;;18.20;59.40;;;;;;5000657;28;1440;-71
2024/03/28 07:06:30;;;;;;;;;;;18.20;59.40;;;;;;5006844;28;1277;-73
2024/03/28 07:08:55;;;;;;;;;;;18.20;59.40;;;;;;5008242;28;1374;-73
2024/03/28 07:11:20;;;;;;;;;;;18.20;59.50;;;;;;5003474;28;1971;-73
2024/03/28 07:13:46;;;;;;;;;;;18.20;59.50;;;;;;5022795;28;1540;-74
2024/03/28 07:16:11;;;;;;;;;;;18.20;59.50;;;;;;5001466;28;1533;-73
2024/03/28 07:18:37;;;;;;;;;;;18.20;59.50;;;;;;5000631;28;1983;-73
2024/03/28 07:21:03;;;;;;;;;;;18.10;59.50;;;;;;5003525;28;1262;-72
2024/03/28 07:23:29;;;;;;;;;;;18.10;59.50;;;;;;4999003;28;1923;-74
2024/03/28 07:25:55;;;;;;;;;;;18.10;59.60;;;;;;5033000;28;1374;-74
2024/03/28 07:28:20;;;;;;;;;;;18.10;59.60;;;;;;4999842;28;1578;-74
2024/03/28 07:30:46;;;;;;;;;;;18.10;59.50;;;;;;5001505;28;1898;-73
2024/03/28 07:33:11;;;;;;;;;;;18.10;59.60;;;;;;4997518;28;1235;-71
2024/03/28 07:35:37;;;;;;;;;;;18.10;59.60;;;;;;5017133;28;1371;-71
2024/03/28 07:38:03;;;;;;;;;;;18.10;59.60;;;;;;5034235;28;1675;-74
2024/03/28 07:40:28;;;;;;;;;;;18.10;59.70;;;;;;5000591;28;1580;-73
2024/03/28 07:42:54;;;;;;;;;;;18.10;59.70;;;;;;4999264;28;1408;-69
2024/03/28 07:45:19;;;;;;;;;;;18.10;59.70;;;;;;5001269;28;1634;-69
2024/03/28 07:47:45;;;;;;;;;;;18.10;59.70;;;;;;5001704;28;1042;-69
2024/03/28 07:50:11;;;;;;;;;;;18.10;59.70;;;;;;5001193;28;1408;-69
2024/03/28 07:52:37;;;;;;;;;;;18.10;59.70;;;;;;5000722;28;1958;-69
2024/03/28 07:55:03;;;;;;;;;;;18.10;59.80;;;;;;5019842;28;1250;-69
2024/03/28 07:57:28;;;;;;;;;;;18.10;59.80;;;;;;5029584;28;1072;-70
2024/03/28 07:59:54;;;;;;;;;;;18.10;59.80;;;;;;5032790;28;1352;-70
2024/03/28 08:02:22;;;;;;;;;;;18.10;59.80;;;;;;5000859;28;1641;-70
2024/03/28 08:04:48;;;;;;;;;;;18.10;59.80;;;;;;5007632;28;1437;-70
2024/03/28 08:07:13;;;;;;;;;;;18.10;59.80;;;;;;5002568;28;1017;-71
2024/03/28 08:09:39;;;;;;;;;;;18.10;59.80;;;;;;5000951;28;1183;-71
2024/03/28 08:12:08;;;;;;;;;;;18.10;59.80;;;;;;5030582;28;1906;-71
2024/03/28 08:14:33;;;;;;;;;;;18.00;59.80;;;;;;5006431;28;1296;-71
2024/03/28 08:17:00;;;;;;;;;;;18.00;59.80;;;;;;5001014;28;1537;-71
2024/03/28 08:19:26;;;;;;;;;;;18.00;59.90;;;;;;5032220;28;1500;-71
2024/03/28 08:21:51;;;;;;;;;;;18.10;59.90;;;;;;5031077;28;1542;-71
2024/03/28 08:24:22;;;;;;;;;;;18.00;59.90;;;;;;5032402;28;1545;-74
2024/03/28 08:26:48;;;;;;;;;;;18.00;59.90;;;;;;5030897;28;1672;-74
2024/03/28 08:29:15;;;;;;;;;;;18.00;59.90;;;;;;5001940;28;1374;-74
2024/03/28 08:31:41;;;;;;;;;;;18.00;59.90;;;;;;5000533;28;1981;-73
2024/03/28 08:34:07;;;;;;;;;;;18.00;59.90;;;;;;5032815;28;1356;-74
2024/03/28 08:36:33;;;;;;;;;;;18.00;60.00;;;;;;5033128;28;1382;-74
2024/03/28 08:38:58;;;;;;;;;;;18.00;60.00;;;;;;5002316;28;1266;-72
2024/03/28 08:41:23;;;;;;;;;;;18.00;60.00;;;;;;4999113;28;1321;-72
2024/03/28 08:43:50;;;;;;;;;;;18.00;60.10;;;;;;5004244;28;1506;-72
2024/03/28 08:46:17;;;;;;;;;;;18.00;60.00;;;;;;4997561;28;1338;-73
2024/03/28 08:48:46;;;;;;;;;;;18.00;60.00;;;;;;4997329;28;1497;-72
2024/03/28 08:51:17;;;;;;;;;;;18.00;60.10;;;;;;5029254;28;1894;-72
2024/03/28 08:53:42;;;;;;;;;;;18.00;60.10;;;;;;5000524;28;1413;-73
2024/03/28 08:56:08;;;;;;;;;;;18.00;60.10;;;;;;5032567;28;1335;-73
2024/03/28 08:58:34;;;;;;;;;;;18.00;60.10;;;;;;5000087;28;1248;-75
2024/03/28 09:01:00;;;;;;;;;;;18.00;60.00;;;;;;5000314;28;1465;-75
2024/03/28 09:03:26;;;;;;;;;;;18.00;60.00;;;;;;5001487;28;1412;-71
2024/03/28 09:05:52;;;;;;;;;;;18.00;60.00;;;;;;5033103;28;1685;-71
2024/03/28 09:08:19;;;;;;;;;;;18.00;59.90;;;;;;5032433;28;1577;-71
2024/03/28 09:10:54;;;;;;;;;;;18.10;59.90;;;;;;5032707;28;1963;-72
2024/03/28 09:13:21;;;;;;;;;;;18.10;60.00;;;;;;5032184;28;1597;-72
2024/03/28 09:15:47;;;;;;;;;;;18.10;59.90;;;;;;5013406;28;1590;-72
2024/03/28 09:18:12;;;;;;;;;;;18.10;59.80;;;;;;5000023;28;1469;-72
2024/03/28 09:20:38;;;;;;;;;;;18.10;59.80;;;;;;5014518;28;1500;-71
2024/03/28 09:23:03;;;;;;;;;;;18.10;59.80;;;;;;4999793;28;1052;-70
2024/03/28 09:25:29;;;;;;;;;;;18.10;59.70;;;;;;5032466;28;1271;-72
2024/03/28 09:27:54;;;;;;;;;;;18.20;59.80;;;;;;5030959;28;1663;-71
2024/03/28 09:30:21;;;;;;;;;;;18.20;60.40;;;;;;4999980;28;1624;-71
2024/03/28 09:32:47;;;;;;;;;;;18.10;59.70;;;;;;4998344;28;1972;-73
2024/03/28 09:35:12;;;;;;;;;;;18.10;59.70;;;;;;5029849;28;1647;-71
2024/03/28 09:37:38;;;;;;;;;;;18.20;60.40;;;;;;4995977;28;1413;-71
2024/03/28 09:40:05;;;;;;;;;;;18.20;59.80;;;;;;4997388;28;1021;-72
2024/03/28 09:42:31;;;;;;;;;;;18.20;59.80;;;;;;4999407;28;1452;-71
2024/03/28 09:44:56;;;;;;;;;;;18.10;59.70;;;;;;4996816;28;1712;-71
2024/03/28 09:47:22;;;;;;;;;;;18.10;59.70;;;;;;5031674;28;1313;-71
2024/03/28 09:49:50;;;;;;;;;;;18.10;59.80;;;;;;5000498;28;1339;-73
2024/03/28 09:52:16;;;;;;;;;;;18.10;59.80;;;;;;5022357;28;1961;-73
2024/03/28 09:54:42;;;;;;;;;;;18.10;59.80;;;;;;4998656;28;1433;-73
2024/03/28 09:57:08;;;;;;;;;;;18.10;59.80;;;;;;5017829;28;1375;-72
2024/03/28 09:59:33;;;;;;;;;;;18.10;59.90;;;;;;5028921;28;1254;-72
2024/03/28 10:02:06;;;;;;;;;;;18.10;59.80;;;;;;5023006;28;1613;-74
2024/03/28 10:04:31;;;;;;;;;;;18.10;59.90;;;;;;5030010;28;1496;-74
2024/03/28 10:06:57;;;;;;;;;;;18.10;59.90;;;;;;5018225;28;1451;-74
2024/03/28 10:09:23;;;;;;;;;;;18.10;59.90;;;;;;4999329;28;1441;-73
2024/03/28 10:11:48;;;;;;;;;;;18.10;59.90;;;;;;5032045;28;1985;-75
2024/03/28 10:14:26;;;;;;;;;;;18.10;60.00;;;;;;5002819;28;1556;-73
2024/03/28 10:16:58;;;;;;;;;;;18.10;60.00;;;;;;5001845;28;1461;-74
2024/03/28 10:19:28;;;;;;;;;;;18.10;60.00;;;;;;5032372;28;930;-74
2024/03/28 10:22:04;;;;;;;;;;;18.10;60.10;;;;;;5034764;28;1173;-74
2024/03/28 10:24:35;;;;;;;;;;;18.00;60.00;;;;;;5036319;28;1469;-71
2024/03/28 10:27:11;;;;;;;;;;;18.10;60.10;;;;;;5001764;28;1236;-74
2024/03/28 10:29:36;;;;;;;;;;;18.10;60.10;;;;;;5009982;28;1443;-73
2024/03/28 10:32:03;;;;;;;;;;;18.00;60.10;;;;;;5003549;28;1972;-74
2024/03/28 10:34:28;;;;;;;;;;;18.00;60.10;;;;;;5005909;28;1482;-72
2024/03/28 10:37:02;;;;;;;;;;;18.10;60.50;;;;;;5004212;28;1342;-72
2024/03/28 10:39:27;;;;;;;;;;;18.10;60.90;;;;;;5004692;28;1131;-73
2024/03/28 10:41:53;;;;;;;;;;;18.10;61.20;;;;;;5002665;28;1496;-73
2024/03/28 10:44:19;;;;;;;;;;;18.10;61.20;;;;;;5024903;28;1421;-72
2024/03/28 10:46:44;;;;;;;;;;;18.20;61.70;;;;;;5032187;28;1376;-72
2024/03/28 10:49:10;;;;;;;;;;;18.20;61.60;;;;;;5021686;28;1000;-75
2024/03/28 10:51:36;;;;;;;;;;;18.20;61.80;;;;;;5033034;28;1966;-72
2024/03/28 10:54:20;;;;;;;;;;;18.20;61.70;;;;;;4994629;28;1251;-72
2024/03/28 10:56:45;;;;;;;;;;;18.20;61.80;;;;;;5037140;28;1269;-75
2024/03/28 10:59:10;;;;;;;;;;;18.10;61.70;;;;;;5003072;28;1071;-72
2024/03/28 11:01:36;;;;;;;;;;;18.20;61.90;;;;;;5004056;28;1005;-72
2024/03/28 11:04:02;;;;;;;;;;;18.20;61.80;;;;;;5050351;28;1274;-71
2024/03/28 11:06:27;;;;;;;;;;;18.20;61.70;;;;;;5034792;28;1588;-73
2024/03/28 11:08:53;;;;;;;;;;;18.10;61.70;;;;;;5019574;28;1332;-72
2024/03/28 11:11:19;;;;;;;;;;;18.10;61.70;;;;;;5019596;28;1918;-73
2024/03/28 11:13:44;;;;;;;;;;;18.10;61.60;;;;;;5033395;28;1456;-71
2024/03/28 11:16:10;;;;;;;;;;;18.10;61.60;;;;;;5003133;28;1560;-72
2024/03/28 11:18:35;;;;;;;;;;;18.10;61.80;;;;;;5004852;28;1444;-71
2024/03/28 11:21:01;;;;;;;;;;;18.10;61.80;;;;;;5027660;28;784;-72
2024/03/28 11:23:27;;;;;;;;;;;18.10;61.70;;;;;;5000247;28;1452;-73
2024/03/28 11:26:05;;;;;;;;;;;18.10;61.80;;;;;;5025505;28;1782;-72
2024/03/28 11:28:31;;;;;;;;;;;18.10;61.80;;;;;;5033101;28;1466;-73
2024/03/28 11:30:57;;;;;;;;;;;18.10;61.90;;;;;;5018501;28;1963;-73
2024/03/28 11:33:32;;;;;;;;;;;18.10;61.90;;;;;;5009233;28;1574;-70
2024/03/28 11:36:01;;;;;;;;;;;18.10;61.90;;;;;;5031678;28;1956;-70
2024/03/28 11:38:27;;;;;;;;;;;18.10;61.90;;;;;;5033820;28;1402;-73
2024/03/28 11:40:52;;;;;;;;;;;18.10;61.90;;;;;;5032860;28;1212;-71
2024/03/28 11:43:19;;;;;;;;;;;18.10;62.00;;;;;;5003537;28;951;-73
2024/03/28 11:45:48;;;;;;;;;;;18.10;62.10;;;;;;5029402;28;1268;-74
2024/03/28 11:48:14;;;;;;;;;;;18.10;62.30;;;;;;4999250;28;1274;-71
2024/03/28 11:50:40;;;;;;;;;;;18.10;62.20;;;;;;4999510;28;1541;-73
2024/03/28 11:53:06;;;;;;;;;;;18.10;62.30;;;;;;5031108;28;1898;-73
2024/03/28 11:55:31;;;;;;;;;;;18.10;62.50;;;;;;5001159;28;1289;-74
2024/03/28 11:58:03;;;;;;;;;;;18.10;62.60;;;;;;5031282;28;1479;-73
2024/03/28 12:00:29;;;;;;;;;;;18.10;62.40;;;;;;5003145;28;1282;-71
2024/03/28 12:02:55;;;;;;;;;;;18.10;62.70;;;;;;5001017;28;1321;-72
2024/03/28 12:05:21;;;;;;;;;;;18.10;62.80;;;;;;5029757;28;1498;-72
2024/03/28 12:07:47;;;;;;;;;;;18.00;62.60;;;;;;5015139;28;1960;-71
2024/03/28 12:10:17;;;;;;;;;;;18.00;63.40;;;;;;4999332;28;1381;-71
2024/03/28 12:12:42;;;;;;;;;;;18.00;62.60;;;;;;4998886;28;1898;-71
2024/03/28 12:15:08;;;;;;;;;;;18.00;62.70;;;;;;4999586;28;1451;-72
2024/03/28 12:17:35;;;;;;;;;;;18.00;62.70;;;;;;5032091;28;1799;-71
2024/03/28 12:20:04;;;;;;;;;;;18.00;62.60;;;;;;5034298;28;2254;-72
2024/03/28 12:22:30;;;;;;;;;;;18.00;62.90;;;;;;4999283;28;1530;-72
2024/03/28 12:24:57;;;;;;;;;;;18.00;62.90;;;;;;4998078;28;1864;-73
2024/03/28 12:27:22;;;;;;;;;;;18.00;62.90;;;;;;5013765;28;1439;-72
2024/03/28 12:29:48;;;;;;;;;;;18.00;62.70;;;;;;4998478;28;1469;-72
2024/03/28 12:32:14;;;;;;;;;;;18.00;62.80;;;;;;5031127;28;1902;-73
2024/03/28 12:34:48;;;;;;;;;;;18.00;62.70;;;;;;5018387;28;1501;-72
2024/03/28 12:37:14;;;;;;;;;;;18.00;62.60;;;;;;4999813;28;1511;-72
2024/03/28 12:39:39;;;;;;;;;;;18.00;62.60;;;;;;5032008;28;1467;-72
2024/03/28 12:42:05;;;;;;;;;;;18.00;62.60;;;;;;5002660;28;1334;-72
2024/03/28 12:44:31;;;;;;;;;;;18.00;62.50;;;;;;5006770;28;1277;-72
2024/03/28 12:46:57;;;;;;;;;;;18.00;62.60;;;;;;5001342;28;1249;-72
2024/03/28 12:49:22;;;;;;;;;;;18.00;62.70;;;;;;4997156;28;1328;-73
2024/03/28 12:51:48;;;;;;;;;;;18.00;62.70;;;;;;5031437;28;1954;-71
2024/03/28 12:54:13;;;;;;;;;;;18.00;62.70;;;;;;4999611;28;1266;-73
2024/03/28 12:56:38;;;;;;;;;;;18.00;62.60;;;;;;5015536;28;1257;-72
2024/03/28 12:59:04;;;;;;;;;;;17.90;62.50;;;;;;5002560;28;1523;-72
2024/03/28 13:01:29;;;;;;;;;;;18.00;62.60;;;;;;4999138;28;1594;-73
2024/03/28 13:03:55;;;;;;;;;;;18.00;62.70;;;;;;5032562;28;1311;-73
2024/03/28 13:06:20;;;;;;;;;;;17.90;62.60;;;;;;4998429;28;1718;-73
2024/03/28 13:08:46;;;;;;;;;;;18.00;62.70;;;;;;4998897;28;2183;-73
2024/03/28 13:11:11;;;;;;;;;;;18.00;62.70;;;;;;5001488;28;1902;-74
2024/03/28 13:13:37;;;;;;;;;;;17.90;62.70;;;;;;4998042;28;1359;-73
2024/03/28 13:16:04;;;;;;;;;;;17.90;62.70;;;;;;4998441;28;1546;-73
2024/03/28 13:18:30;;;;;;;;;;;17.90;62.80;;;;;;5031615;28;1589;-73
2024/03/28 13:20:57;;;;;;;;;;;18.00;62.80;;;;;;4997634;28;1539;-73
2024/03/28 13:23:23;;;;;;;;;;;17.90;62.80;;;;;;5001186;28;2148;-73
2024/03/28 13:25:48;;;;;;;;;;;17.90;62.80;;;;;;4997272;28;1424;-73
2024/03/28 13:28:16;;;;;;;;;;;17.90;62.80;;;;;;5029515;28;1879;-74
2024/03/28 13:30:43;;;;;;;;;;;17.90;62.80;;;;;;5030339;28;1482;-73
2024/03/28 13:33:09;;;;;;;;;;;17.90;62.80;;;;;;5000453;28;1898;-73
2024/03/28 13:35:34;;;;;;;;;;;17.90;62.80;;;;;;4998487;28;1343;-73
2024/03/28 13:37:59;;;;;;;;;;;17.90;62.70;;;;;;4991797;28;1288;-73
2024/03/28 13:40:25;;;;;;;;;;;17.90;62.60;;;;;;4999426;28;1450;-73
2024/03/28 13:42:50;;;;;;;;;;;17.90;62.60;;;;;;5001335;28;1430;-73
2024/03/28 13:45:16;;;;;;;;;;;17.90;62.60;;;;;;4998102;28;1529;-73
2024/03/28 13:47:41;;;;;;;;;;;17.90;62.60;;;;;;5000507;28;1349;-73
2024/03/28 13:50:07;;;;;;;;;;;17.90;62.60;;;;;;4998474;28;1433;-73
2024/03/28 13:52:32;;;;;;;;;;;17.90;62.60;;;;;;4995914;28;1963;-73
2024/03/28 13:54:58;;;;;;;;;;;17.90;62.50;;;;;;5032531;28;1396;-73
2024/03/28 13:57:23;;;;;;;;;;;17.90;62.50;;;;;;5002042;28;1300;-73
2024/03/28 13:59:49;;;;;;;;;;;17.90;62.50;;;;;;5004124;28;1507;-72
2024/03/28 14:02:14;;;;;;;;;;;17.90;62.50;;;;;;5036921;28;2280;-72
2024/03/28 14:04:40;;;;;;;;;;;17.90;62.50;;;;;;5035889;28;1292;-72
2024/03/28 14:07:05;;;;;;;;;;;17.90;62.40;;;;;;5003465;28;1226;-72
2024/03/28 14:09:31;;;;;;;;;;;17.90;62.40;;;;;;5021060;28;1757;-72
2024/03/28 14:11:56;;;;;;;;;;;17.90;62.40;;;;;;5002052;28;1914;-72
2024/03/28 14:14:22;;;;;;;;;;;17.90;62.40;;;;;;5001175;28;2168;-71
2024/03/28 14:16:47;;;;;;;;;;;17.90;62.40;;;;;;5001891;28;1210;-73
2024/03/28 14:19:13;;;;;;;;;;;17.90;62.40;;;;;;5046906;28;1155;-72
2024/03/28 14:21:38;;;;;;;;;;;17.90;62.40;;;;;;5005004;28;1536;-71
2024/03/28 14:24:04;;;;;;;;;;;17.90;62.30;;;;;;5008661;28;2137;-71
2024/03/28 14:26:29;;;;;;;;;;;17.90;62.40;;;;;;5001862;28;1248;-72
2024/03/28 14:28:55;;;;;;;;;;;18.00;62.50;;;;;;5006634;28;1004;-72